sensor_id;sensor_type;location;lat;lon;timestamp;P1;durP1;ratioP1;P2;durP2;ratioP2
55314;SDS011;41619;42.816;23.226;2023-02-18T00:01:16;54.08;;;25.52;;
55314;SDS011;41619;42.816;23.226;2023-02-18T00:03:43;55.28;;;25.00;;
55314;SDS011;41619;42.816;23.226;2023-02-18T00:06:09;57.40;;;23.80;;
55314;SDS011;41619;42.816;23.226;2023-02-18T00:08:40;55.22;;;21.38;;
55314;SDS011;41619;42.816;23.226;2023-02-18T00:11:06;61.53;;;24.13;;
55314;SDS011;41619;42.816;23.226;2023-02-18T00:13:32;55.38;;;23.40;;
55314;SDS011;41619;42.816;23.226;2023-02-18T00:16:05;51.80;;;23.00;;
55314;SDS011;41619;42.816;23.226;2023-02-18T00:18:32;54.53;;;24.27;;
55314;SDS011;41619;42.816;23.226;2023-02-18T00:20:58;61.30;;;24.13;;
55314;SDS011;41619;42.816;23.226;2023-02-18T00:23:23;62.65;;;23.88;;
55314;SDS011;41619;42.816;23.226;2023-02-18T00:25:49;50.53;;;23.80;;
55314;SDS011;41619;42.816;23.226;2023-02-18T00:28:26;49.10;;;21.73;;
55314;SDS011;41619;42.816;23.226;2023-02-18T00:30:52;48.72;;;21.77;;
55314;SDS011;41619;42.816;23.226;2023-02-18T00:33:17;50.97;;;23.13;;
55314;SDS011;41619;42.816;23.226;2023-02-18T00:35:42;54.25;;;23.23;;
55314;SDS011;41619;42.816;23.226;2023-02-18T00:38:08;55.67;;;22.48;;
55314;SDS011;41619;42.816;23.226;2023-02-18T00:40:36;63.95;;;23.88;;
55314;SDS011;41619;42.816;23.226;2023-02-18T00:45:27;59.00;;;24.08;;
55314;SDS011;41619;42.816;23.226;2023-02-18T00:47:53;55.05;;;23.02;;
55314;SDS011;41619;42.816;23.226;2023-02-18T00:50:18;47.20;;;21.50;;
55314;SDS011;41619;42.816;23.226;2023-02-18T00:52:44;43.47;;;20.58;;
55314;SDS011;41619;42.816;23.226;2023-02-18T00:55:09;43.42;;;19.75;;
55314;SDS011;41619;42.816;23.226;2023-02-18T00:57:34;45.92;;;20.23;;
55314;SDS011;41619;42.816;23.226;2023-02-18T01:00:00;50.92;;;21.80;;
55314;SDS011;41619;42.816;23.226;2023-02-18T01:02:25;50.45;;;21.48;;
55314;SDS011;41619;42.816;23.226;2023-02-18T01:04:51;45.67;;;21.25;;
55314;SDS011;41619;42.816;23.226;2023-02-18T01:07:16;57.20;;;24.00;;
55314;SDS011;41619;42.816;23.226;2023-02-18T01:09:41;62.03;;;25.08;;
55314;SDS011;41619;42.816;23.226;2023-02-18T01:12:07;62.25;;;25.05;;
55314;SDS011;41619;42.816;23.226;2023-02-18T01:14:32;49.35;;;20.75;;
55314;SDS011;41619;42.816;23.226;2023-02-18T01:16:57;38.20;;;17.27;;
55314;SDS011;41619;42.816;23.226;2023-02-18T01:19:23;42.97;;;17.38;;
55314;SDS011;41619;42.816;23.226;2023-02-18T01:21:48;32.88;;;15.85;;
55314;SDS011;41619;42.816;23.226;2023-02-18T01:24:14;37.47;;;15.43;;
55314;SDS011;41619;42.816;23.226;2023-02-18T01:26:39;44.33;;;18.73;;
55314;SDS011;41619;42.816;23.226;2023-02-18T01:29:04;45.03;;;18.25;;
55314;SDS011;41619;42.816;23.226;2023-02-18T01:31:30;33.47;;;15.73;;
55314;SDS011;41619;42.816;23.226;2023-02-18T01:33:55;32.25;;;15.18;;
55314;SDS011;41619;42.816;23.226;2023-02-18T01:36:20;32.50;;;13.75;;
55314;SDS011;41619;42.816;23.226;2023-02-18T01:38:46;33.20;;;14.45;;
55314;SDS011;41619;42.816;23.226;2023-02-18T01:41:11;27.73;;;13.60;;
55314;SDS011;41619;42.816;23.226;2023-02-18T01:43:36;30.52;;;15.10;;
55314;SDS011;41619;42.816;23.226;2023-02-18T01:46:04;33.00;;;15.90;;
55314;SDS011;41619;42.816;23.226;2023-02-18T01:48:50;38.95;;;15.60;;
55314;SDS011;41619;42.816;23.226;2023-02-18T01:51:21;31.83;;;14.65;;
55314;SDS011;41619;42.816;23.226;2023-02-18T01:54:07;27.88;;;13.52;;
55314;SDS011;41619;42.816;23.226;2023-02-18T01:56:49;27.35;;;13.13;;
55314;SDS011;41619;42.816;23.226;2023-02-18T01:59:22;23.63;;;11.60;;
55314;SDS011;41619;42.816;23.226;2023-02-18T02:01:49;28.63;;;12.27;;
55314;SDS011;41619;42.816;23.226;2023-02-18T02:04:16;27.40;;;11.82;;
55314;SDS011;41619;42.816;23.226;2023-02-18T02:06:41;24.38;;;12.15;;
55314;SDS011;41619;42.816;23.226;2023-02-18T02:09:09;23.77;;;11.35;;
55314;SDS011;41619;42.816;23.226;2023-02-18T02:14:18;21.27;;;12.15;;
55314;SDS011;41619;42.816;23.226;2023-02-18T02:39:13;27.02;;;14.38;;
55314;SDS011;41619;42.816;23.226;2023-02-18T02:47:58;29.75;;;13.88;;
55314;SDS011;41619;42.816;23.226;2023-02-18T02:52:58;30.75;;;15.75;;
55314;SDS011;41619;42.816;23.226;2023-02-18T02:55:29;35.35;;;15.55;;
55314;SDS011;41619;42.816;23.226;2023-02-18T02:57:55;31.15;;;14.85;;
55314;SDS011;41619;42.816;23.226;2023-02-18T03:00:29;36.55;;;14.40;;
55314;SDS011;41619;42.816;23.226;2023-02-18T03:11:05;30.85;;;14.85;;
55314;SDS011;41619;42.816;23.226;2023-02-18T03:13:41;29.95;;;13.50;;
55314;SDS011;41619;42.816;23.226;2023-02-18T03:16:27;28.25;;;14.38;;
55314;SDS011;41619;42.816;23.226;2023-02-18T03:21:52;32.47;;;13.50;;
55314;SDS011;41619;42.816;23.226;2023-02-18T03:24:27;31.75;;;14.80;;
55314;SDS011;41619;42.816;23.226;2023-02-18T03:27:03;30.67;;;13.48;;
55314;SDS011;41619;42.816;23.226;2023-02-18T03:29:33;25.95;;;11.90;;
55314;SDS011;41619;42.816;23.226;2023-02-18T03:32:02;29.23;;;12.68;;
55314;SDS011;41619;42.816;23.226;2023-02-18T03:34:33;25.05;;;13.90;;
55314;SDS011;41619;42.816;23.226;2023-02-18T03:37:05;28.23;;;13.43;;
55314;SDS011;41619;42.816;23.226;2023-02-18T03:39:35;27.87;;;13.10;;
55314;SDS011;41619;42.816;23.226;2023-02-18T03:42:03;28.65;;;14.63;;
55314;SDS011;41619;42.816;23.226;2023-02-18T03:44:29;30.80;;;15.85;;
55314;SDS011;41619;42.816;23.226;2023-02-18T03:46:54;32.25;;;14.18;;
55314;SDS011;41619;42.816;23.226;2023-02-18T03:49:20;29.35;;;14.52;;
55314;SDS011;41619;42.816;23.226;2023-02-18T03:51:45;29.70;;;15.02;;
55314;SDS011;41619;42.816;23.226;2023-02-18T03:54:11;28.35;;;14.95;;
55314;SDS011;41619;42.816;23.226;2023-02-18T03:56:38;31.77;;;15.60;;
55314;SDS011;41619;42.816;23.226;2023-02-18T03:59:05;37.80;;;16.63;;
55314;SDS011;41619;42.816;23.226;2023-02-18T04:01:30;35.60;;;16.75;;
55314;SDS011;41619;42.816;23.226;2023-02-18T04:03:56;37.63;;;18.63;;
55314;SDS011;41619;42.816;23.226;2023-02-18T04:06:21;38.42;;;16.92;;
55314;SDS011;41619;42.816;23.226;2023-02-18T04:08:48;38.78;;;19.50;;
55314;SDS011;41619;42.816;23.226;2023-02-18T04:11:13;44.88;;;20.48;;
55314;SDS011;41619;42.816;23.226;2023-02-18T04:13:39;44.25;;;21.33;;
55314;SDS011;41619;42.816;23.226;2023-02-18T04:16:04;42.10;;;21.48;;
55314;SDS011;41619;42.816;23.226;2023-02-18T04:18:30;42.08;;;19.65;;
55314;SDS011;41619;42.816;23.226;2023-02-18T04:20:56;33.33;;;16.50;;
55314;SDS011;41619;42.816;23.226;2023-02-18T04:23:21;31.95;;;16.33;;
55314;SDS011;41619;42.816;23.226;2023-02-18T04:25:47;31.27;;;15.50;;
55314;SDS011;41619;42.816;23.226;2023-02-18T04:28:12;28.83;;;14.65;;
55314;SDS011;41619;42.816;23.226;2023-02-18T04:30:39;31.48;;;15.00;;
55314;SDS011;41619;42.816;23.226;2023-02-18T04:33:05;29.42;;;15.38;;
55314;SDS011;41619;42.816;23.226;2023-02-18T04:35:30;29.20;;;14.88;;
55314;SDS011;41619;42.816;23.226;2023-02-18T04:37:56;36.58;;;15.85;;
55314;SDS011;41619;42.816;23.226;2023-02-18T04:40:21;37.13;;;17.48;;
55314;SDS011;41619;42.816;23.226;2023-02-18T04:42:49;56.63;;;22.50;;
55314;SDS011;41619;42.816;23.226;2023-02-18T04:45:14;42.63;;;18.50;;
55314;SDS011;41619;42.816;23.226;2023-02-18T04:47:40;34.00;;;15.15;;
55314;SDS011;41619;42.816;23.226;2023-02-18T04:50:05;29.75;;;14.82;;
55314;SDS011;41619;42.816;23.226;2023-02-18T04:52:31;71.03;;;30.00;;
55314;SDS011;41619;42.816;23.226;2023-02-18T04:54:57;47.15;;;22.60;;
55314;SDS011;41619;42.816;23.226;2023-02-18T04:57:22;71.10;;;30.10;;
55314;SDS011;41619;42.816;23.226;2023-02-18T04:59:48;52.90;;;25.65;;
55314;SDS011;41619;42.816;23.226;2023-02-18T05:02:13;59.13;;;25.92;;
55314;SDS011;41619;42.816;23.226;2023-02-18T05:04:38;36.67;;;16.98;;
55314;SDS011;41619;42.816;23.226;2023-02-18T05:07:04;28.60;;;14.93;;
55314;SDS011;41619;42.816;23.226;2023-02-18T05:09:29;25.88;;;13.18;;
55314;SDS011;41619;42.816;23.226;2023-02-18T05:11:55;25.00;;;12.40;;
55314;SDS011;41619;42.816;23.226;2023-02-18T05:14:20;28.20;;;13.40;;
55314;SDS011;41619;42.816;23.226;2023-02-18T05:16:45;29.65;;;12.65;;
55314;SDS011;41619;42.816;23.226;2023-02-18T05:19:14;25.90;;;12.40;;
55314;SDS011;41619;42.816;23.226;2023-02-18T05:21:40;30.92;;;13.70;;
55314;SDS011;41619;42.816;23.226;2023-02-18T05:24:05;26.60;;;13.13;;
55314;SDS011;41619;42.816;23.226;2023-02-18T05:26:32;26.92;;;14.73;;
55314;SDS011;41619;42.816;23.226;2023-02-18T05:28:58;28.95;;;14.30;;
55314;SDS011;41619;42.816;23.226;2023-02-18T05:31:23;31.20;;;14.60;;
55314;SDS011;41619;42.816;23.226;2023-02-18T05:33:48;28.27;;;13.57;;
55314;SDS011;41619;42.816;23.226;2023-02-18T05:36:14;26.58;;;13.82;;
55314;SDS011;41619;42.816;23.226;2023-02-18T05:38:39;26.73;;;13.80;;
55314;SDS011;41619;42.816;23.226;2023-02-18T05:41:05;29.95;;;13.45;;
55314;SDS011;41619;42.816;23.226;2023-02-18T05:43:30;29.85;;;13.88;;
55314;SDS011;41619;42.816;23.226;2023-02-18T05:46:15;27.88;;;14.20;;
55314;SDS011;41619;42.816;23.226;2023-02-18T05:48:41;24.58;;;13.85;;
55314;SDS011;41619;42.816;23.226;2023-02-18T05:51:06;29.58;;;11.43;;
55314;SDS011;41619;42.816;23.226;2023-02-18T05:53:31;21.65;;;10.90;;
55314;SDS011;41619;42.816;23.226;2023-02-18T05:55:57;64.88;;;27.52;;
55314;SDS011;41619;42.816;23.226;2023-02-18T05:58:22;130.50;;;50.17;;
55314;SDS011;41619;42.816;23.226;2023-02-18T06:00:47;149.07;;;58.47;;
55314;SDS011;41619;42.816;23.226;2023-02-18T06:03:13;53.03;;;25.60;;
55314;SDS011;41619;42.816;23.226;2023-02-18T06:05:38;36.95;;;16.48;;
55314;SDS011;41619;42.816;23.226;2023-02-18T06:08:04;35.25;;;16.15;;
55314;SDS011;41619;42.816;23.226;2023-02-18T06:10:29;35.65;;;16.67;;
55314;SDS011;41619;42.816;23.226;2023-02-18T06:12:54;117.97;;;49.88;;
55314;SDS011;41619;42.816;23.226;2023-02-18T06:15:20;213.25;;;93.32;;
55314;SDS011;41619;42.816;23.226;2023-02-18T06:17:45;237.45;;;99.00;;
55314;SDS011;41619;42.816;23.226;2023-02-18T06:20:10;115.53;;;50.10;;
55314;SDS011;41619;42.816;23.226;2023-02-18T06:22:36;45.05;;;22.70;;
55314;SDS011;41619;42.816;23.226;2023-02-18T06:25:01;47.78;;;21.77;;
55314;SDS011;41619;42.816;23.226;2023-02-18T06:27:27;75.88;;;33.95;;
55314;SDS011;41619;42.816;23.226;2023-02-18T06:29:52;134.88;;;61.33;;
55314;SDS011;41619;42.816;23.226;2023-02-18T06:32:18;101.55;;;47.50;;
55314;SDS011;41619;42.816;23.226;2023-02-18T06:34:43;51.28;;;24.33;;
55314;SDS011;41619;42.816;23.226;2023-02-18T06:37:08;32.95;;;16.48;;
55314;SDS011;41619;42.816;23.226;2023-02-18T06:39:34;80.53;;;30.10;;
55314;SDS011;41619;42.816;23.226;2023-02-18T06:41:59;113.10;;;41.25;;
55314;SDS011;41619;42.816;23.226;2023-02-18T06:44:24;136.00;;;45.00;;
55314;SDS011;41619;42.816;23.226;2023-02-18T06:46:50;76.20;;;28.52;;
55314;SDS011;41619;42.816;23.226;2023-02-18T06:49:15;48.38;;;21.20;;
55314;SDS011;41619;42.816;23.226;2023-02-18T06:51:41;47.33;;;20.65;;
55314;SDS011;41619;42.816;23.226;2023-02-18T06:54:06;36.38;;;18.80;;
55314;SDS011;41619;42.816;23.226;2023-02-18T06:56:31;37.83;;;19.02;;
55314;SDS011;41619;42.816;23.226;2023-02-18T06:58:57;41.90;;;18.85;;
55314;SDS011;41619;42.816;23.226;2023-02-18T07:01:22;46.35;;;22.33;;
55314;SDS011;41619;42.816;23.226;2023-02-18T07:03:48;43.67;;;20.65;;
55314;SDS011;41619;42.816;23.226;2023-02-18T07:06:13;51.05;;;22.98;;
55314;SDS011;41619;42.816;23.226;2023-02-18T07:08:38;34.97;;;16.83;;
55314;SDS011;41619;42.816;23.226;2023-02-18T07:11:06;34.60;;;18.17;;
55314;SDS011;41619;42.816;23.226;2023-02-18T07:13:31;41.78;;;17.95;;
55314;SDS011;41619;42.816;23.226;2023-02-18T07:15:57;47.85;;;21.25;;
55314;SDS011;41619;42.816;23.226;2023-02-18T07:18:22;48.88;;;20.85;;
55314;SDS011;41619;42.816;23.226;2023-02-18T07:20:47;38.90;;;15.43;;
55314;SDS011;41619;42.816;23.226;2023-02-18T07:23:13;33.10;;;15.65;;
55314;SDS011;41619;42.816;23.226;2023-02-18T07:25:38;35.08;;;15.00;;
55314;SDS011;41619;42.816;23.226;2023-02-18T07:28:04;34.40;;;15.60;;
55314;SDS011;41619;42.816;23.226;2023-02-18T07:30:30;30.83;;;14.05;;
55314;SDS011;41619;42.816;23.226;2023-02-18T07:32:55;27.02;;;14.98;;
55314;SDS011;41619;42.816;23.226;2023-02-18T07:35:21;36.55;;;16.85;;
55314;SDS011;41619;42.816;23.226;2023-02-18T07:37:47;27.63;;;15.35;;
55314;SDS011;41619;42.816;23.226;2023-02-18T07:40:14;34.92;;;18.52;;
55314;SDS011;41619;42.816;23.226;2023-02-18T07:42:42;56.30;;;23.80;;
55314;SDS011;41619;42.816;23.226;2023-02-18T07:45:07;66.65;;;26.27;;
55314;SDS011;41619;42.816;23.226;2023-02-18T07:47:33;144.70;;;59.03;;
55314;SDS011;41619;42.816;23.226;2023-02-18T07:50:00;99.65;;;43.05;;
55314;SDS011;41619;42.816;23.226;2023-02-18T07:52:25;49.83;;;22.27;;
55314;SDS011;41619;42.816;23.226;2023-02-18T07:54:51;45.42;;;22.35;;
55314;SDS011;41619;42.816;23.226;2023-02-18T07:57:16;49.25;;;21.20;;
55314;SDS011;41619;42.816;23.226;2023-02-18T07:59:41;43.63;;;18.90;;
55314;SDS011;41619;42.816;23.226;2023-02-18T08:02:09;51.05;;;19.75;;
55314;SDS011;41619;42.816;23.226;2023-02-18T08:04:42;90.30;;;32.50;;
55314;SDS011;41619;42.816;23.226;2023-02-18T08:07:10;158.13;;;55.95;;
55314;SDS011;41619;42.816;23.226;2023-02-18T08:09:38;79.45;;;30.60;;
55314;SDS011;41619;42.816;23.226;2023-02-18T08:12:03;43.33;;;19.73;;
55314;SDS011;41619;42.816;23.226;2023-02-18T08:14:29;55.08;;;22.67;;
55314;SDS011;41619;42.816;23.226;2023-02-18T08:16:54;62.58;;;26.33;;
55314;SDS011;41619;42.816;23.226;2023-02-18T08:19:20;62.70;;;25.58;;
55314;SDS011;41619;42.816;23.226;2023-02-18T08:21:45;94.80;;;40.08;;
55314;SDS011;41619;42.816;23.226;2023-02-18T08:24:10;81.10;;;38.33;;
55314;SDS011;41619;42.816;23.226;2023-02-18T08:26:36;38.35;;;17.60;;
55314;SDS011;41619;42.816;23.226;2023-02-18T08:29:01;37.92;;;17.45;;
55314;SDS011;41619;42.816;23.226;2023-02-18T08:31:27;45.13;;;19.23;;
55314;SDS011;41619;42.816;23.226;2023-02-18T08:33:54;28.25;;;11.13;;
55314;SDS011;41619;42.816;23.226;2023-02-18T08:36:21;20.70;;;10.65;;
55314;SDS011;41619;42.816;23.226;2023-02-18T08:38:47;19.55;;;10.82;;
55314;SDS011;41619;42.816;23.226;2023-02-18T08:41:13;28.65;;;12.52;;
55314;SDS011;41619;42.816;23.226;2023-02-18T08:43:39;19.20;;;10.20;;
55314;SDS011;41619;42.816;23.226;2023-02-18T08:46:05;22.27;;;9.57;;
55314;SDS011;41619;42.816;23.226;2023-02-18T08:48:31;20.70;;;9.82;;
55314;SDS011;41619;42.816;23.226;2023-02-18T08:50:56;26.17;;;10.02;;
55314;SDS011;41619;42.816;23.226;2023-02-18T08:53:22;21.25;;;10.70;;
55314;SDS011;41619;42.816;23.226;2023-02-18T08:55:48;31.20;;;10.35;;
55314;SDS011;41619;42.816;23.226;2023-02-18T08:58:13;24.88;;;9.88;;
55314;SDS011;41619;42.816;23.226;2023-02-18T09:00:41;31.90;;;10.60;;
55314;SDS011;41619;42.816;23.226;2023-02-18T09:03:08;27.52;;;11.98;;
55314;SDS011;41619;42.816;23.226;2023-02-18T09:05:37;30.25;;;12.30;;
55314;SDS011;41619;42.816;23.226;2023-02-18T09:08:03;29.65;;;10.73;;
55314;SDS011;41619;42.816;23.226;2023-02-18T09:10:28;31.00;;;12.18;;
55314;SDS011;41619;42.816;23.226;2023-02-18T09:12:54;34.22;;;16.17;;
55314;SDS011;41619;42.816;23.226;2023-02-18T09:15:19;31.95;;;13.23;;
55314;SDS011;41619;42.816;23.226;2023-02-18T09:17:45;24.33;;;13.15;;
55314;SDS011;41619;42.816;23.226;2023-02-18T09:20:10;30.95;;;15.82;;
55314;SDS011;41619;42.816;23.226;2023-02-18T09:22:36;22.50;;;11.40;;
55314;SDS011;41619;42.816;23.226;2023-02-18T09:25:01;21.92;;;9.60;;
55314;SDS011;41619;42.816;23.226;2023-02-18T09:27:27;18.20;;;9.30;;
55314;SDS011;41619;42.816;23.226;2023-02-18T09:29:53;20.30;;;9.55;;
55314;SDS011;41619;42.816;23.226;2023-02-18T09:32:18;18.13;;;8.95;;
55314;SDS011;41619;42.816;23.226;2023-02-18T09:34:44;20.45;;;9.68;;
55314;SDS011;41619;42.816;23.226;2023-02-18T09:37:09;16.83;;;7.57;;
55314;SDS011;41619;42.816;23.226;2023-02-18T09:39:35;15.20;;;8.10;;
55314;SDS011;41619;42.816;23.226;2023-02-18T09:42:04;12.20;;;7.25;;
55314;SDS011;41619;42.816;23.226;2023-02-18T09:44:35;16.92;;;7.75;;
55314;SDS011;41619;42.816;23.226;2023-02-18T09:47:15;23.13;;;8.35;;
55314;SDS011;41619;42.816;23.226;2023-02-18T09:49:43;15.95;;;7.30;;
55314;SDS011;41619;42.816;23.226;2023-02-18T09:52:19;24.40;;;7.88;;
55314;SDS011;41619;42.816;23.226;2023-02-18T09:54:45;20.77;;;7.30;;
55314;SDS011;41619;42.816;23.226;2023-02-18T10:00:11;30.77;;;15.60;;
55314;SDS011;41619;42.816;23.226;2023-02-18T10:02:39;16.08;;;8.00;;
55314;SDS011;41619;42.816;23.226;2023-02-18T10:05:12;19.30;;;9.18;;
55314;SDS011;41619;42.816;23.226;2023-02-18T10:07:39;18.80;;;7.97;;
55314;SDS011;41619;42.816;23.226;2023-02-18T10:10:17;22.20;;;9.68;;
55314;SDS011;41619;42.816;23.226;2023-02-18T10:12:53;14.55;;;7.60;;
55314;SDS011;41619;42.816;23.226;2023-02-18T10:15:21;19.73;;;10.93;;
55314;SDS011;41619;42.816;23.226;2023-02-18T10:17:51;40.55;;;17.73;;
55314;SDS011;41619;42.816;23.226;2023-02-18T10:20:19;15.73;;;7.32;;
55314;SDS011;41619;42.816;23.226;2023-02-18T10:22:49;29.10;;;12.80;;
55314;SDS011;41619;42.816;23.226;2023-02-18T10:25:18;24.90;;;12.00;;
55314;SDS011;41619;42.816;23.226;2023-02-18T10:27:48;38.13;;;19.40;;
55314;SDS011;41619;42.816;23.226;2023-02-18T10:35:58;54.72;;;18.42;;
55314;SDS011;41619;42.816;23.226;2023-02-18T10:44:50;23.10;;;12.00;;
55314;SDS011;41619;42.816;23.226;2023-02-18T10:52:54;45.60;;;16.15;;
55314;SDS011;41619;42.816;23.226;2023-02-18T10:55:33;26.70;;;15.07;;
55314;SDS011;41619;42.816;23.226;2023-02-18T10:58:00;24.00;;;13.95;;
55314;SDS011;41619;42.816;23.226;2023-02-18T11:00:26;34.22;;;16.80;;
55314;SDS011;41619;42.816;23.226;2023-02-18T11:04:02;54.30;;;33.08;;
55314;SDS011;41619;42.816;23.226;2023-02-18T11:05:51;21.88;;;10.25;;
55314;SDS011;41619;42.816;23.226;2023-02-18T11:08:21;23.55;;;12.30;;
55314;SDS011;41619;42.816;23.226;2023-02-18T11:10:50;23.83;;;8.98;;
55314;SDS011;41619;42.816;23.226;2023-02-18T11:13:22;22.92;;;8.23;;
55314;SDS011;41619;42.816;23.226;2023-02-18T11:20:57;22.55;;;9.20;;
55314;SDS011;41619;42.816;23.226;2023-02-18T11:23:25;20.30;;;9.50;;
55314;SDS011;41619;42.816;23.226;2023-02-18T11:25:58;15.50;;;7.18;;
55314;SDS011;41619;42.816;23.226;2023-02-18T11:31:06;56.05;;;19.98;;
55314;SDS011;41619;42.816;23.226;2023-02-18T11:33:38;33.53;;;13.05;;
55314;SDS011;41619;42.816;23.226;2023-02-18T11:38:46;28.27;;;9.32;;
55314;SDS011;41619;42.816;23.226;2023-02-18T11:41:15;29.33;;;12.30;;
55314;SDS011;41619;42.816;23.226;2023-02-18T11:43:48;27.88;;;13.18;;
55314;SDS011;41619;42.816;23.226;2023-02-18T11:46:16;34.70;;;14.13;;
55314;SDS011;41619;42.816;23.226;2023-02-18T11:48:47;28.13;;;9.85;;
55314;SDS011;41619;42.816;23.226;2023-02-18T11:51:27;39.42;;;16.77;;
55314;SDS011;41619;42.816;23.226;2023-02-18T11:56:57;22.75;;;8.73;;
55314;SDS011;41619;42.816;23.226;2023-02-18T11:59:25;19.50;;;6.75;;
55314;SDS011;41619;42.816;23.226;2023-02-18T12:01:55;10.85;;;5.38;;
55314;SDS011;41619;42.816;23.226;2023-02-18T12:04:27;14.65;;;6.57;;
55314;SDS011;41619;42.816;23.226;2023-02-18T12:07:33;13.50;;;6.97;;
55314;SDS011;41619;42.816;23.226;2023-02-18T12:10:00;20.77;;;7.28;;
55314;SDS011;41619;42.816;23.226;2023-02-18T12:15:08;11.32;;;5.50;;
55314;SDS011;41619;42.816;23.226;2023-02-18T12:17:59;13.38;;;5.97;;
55314;SDS011;41619;42.816;23.226;2023-02-18T12:29:27;15.10;;;7.43;;
55314;SDS011;41619;42.816;23.226;2023-02-18T12:43:06;24.88;;;12.38;;
55314;SDS011;41619;42.816;23.226;2023-02-18T12:48:56;43.10;;;17.45;;
55314;SDS011;41619;42.816;23.226;2023-02-18T12:57:24;13.50;;;6.50;;
55314;SDS011;41619;42.816;23.226;2023-02-18T13:00:06;14.00;;;6.65;;
55314;SDS011;41619;42.816;23.226;2023-02-18T13:15:58;10.52;;;5.40;;
55314;SDS011;41619;42.816;23.226;2023-02-18T13:18:34;21.17;;;6.45;;
55314;SDS011;41619;42.816;23.226;2023-02-18T13:21:04;11.63;;;6.05;;
55314;SDS011;41619;42.816;23.226;2023-02-18T13:23:33;16.40;;;7.32;;
55314;SDS011;41619;42.816;23.226;2023-02-18T13:26:02;12.30;;;7.25;;
55314;SDS011;41619;42.816;23.226;2023-02-18T13:28:36;15.07;;;7.63;;
55314;SDS011;41619;42.816;23.226;2023-02-18T13:33:58;16.15;;;8.30;;
55314;SDS011;41619;42.816;23.226;2023-02-18T13:36:33;14.88;;;8.02;;
55314;SDS011;41619;42.816;23.226;2023-02-18T13:39:11;18.85;;;8.40;;
55314;SDS011;41619;42.816;23.226;2023-02-18T13:41:45;14.80;;;7.10;;
55314;SDS011;41619;42.816;23.226;2023-02-18T13:46:50;17.95;;;9.35;;
55314;SDS011;41619;42.816;23.226;2023-02-18T13:49:18;14.07;;;7.00;;
55314;SDS011;41619;42.816;23.226;2023-02-18T13:51:47;26.00;;;13.00;;
55314;SDS011;41619;42.816;23.226;2023-02-18T13:57:09;12.88;;;6.78;;
55314;SDS011;41619;42.816;23.226;2023-02-18T13:59:50;14.02;;;6.22;;
55314;SDS011;41619;42.816;23.226;2023-02-18T14:04:47;21.40;;;8.20;;
55314;SDS011;41619;42.816;23.226;2023-02-18T14:09:47;27.52;;;13.23;;
55314;SDS011;41619;42.816;23.226;2023-02-18T14:20:41;11.77;;;6.20;;
55314;SDS011;41619;42.816;23.226;2023-02-18T14:33:36;14.27;;;5.75;;
55314;SDS011;41619;42.816;23.226;2023-02-18T14:36:08;14.13;;;5.70;;
55314;SDS011;41619;42.816;23.226;2023-02-18T14:46:50;10.20;;;4.93;;
55314;SDS011;41619;42.816;23.226;2023-02-18T14:49:51;8.45;;;5.57;;
55314;SDS011;41619;42.816;23.226;2023-02-18T14:52:40;15.88;;;7.30;;
55314;SDS011;41619;42.816;23.226;2023-02-18T14:55:43;9.90;;;5.28;;
55314;SDS011;41619;42.816;23.226;2023-02-18T15:03:19;46.97;;;19.92;;
55314;SDS011;41619;42.816;23.226;2023-02-18T15:05:46;54.67;;;22.67;;
55314;SDS011;41619;42.816;23.226;2023-02-18T15:13:15;89.53;;;27.20;;
55314;SDS011;41619;42.816;23.226;2023-02-18T15:15:44;44.83;;;18.10;;
55314;SDS011;41619;42.816;23.226;2023-02-18T15:18:36;36.05;;;15.63;;
55314;SDS011;41619;42.816;23.226;2023-02-18T15:21:02;46.38;;;22.83;;
55314;SDS011;41619;42.816;23.226;2023-02-18T15:23:30;18.17;;;10.57;;
55314;SDS011;41619;42.816;23.226;2023-02-18T15:26:00;23.55;;;9.55;;
55314;SDS011;41619;42.816;23.226;2023-02-18T15:28:27;18.63;;;9.90;;
55314;SDS011;41619;42.816;23.226;2023-02-18T15:30:58;28.27;;;13.20;;
55314;SDS011;41619;42.816;23.226;2023-02-18T15:33:25;38.85;;;18.35;;
55314;SDS011;41619;42.816;23.226;2023-02-18T15:35:51;22.42;;;10.15;;
55314;SDS011;41619;42.816;23.226;2023-02-18T15:38:25;27.83;;;12.40;;
55314;SDS011;41619;42.816;23.226;2023-02-18T15:40:51;52.92;;;19.45;;
55314;SDS011;41619;42.816;23.226;2023-02-18T15:43:22;43.45;;;16.40;;
55314;SDS011;41619;42.816;23.226;2023-02-18T15:45:50;35.70;;;14.98;;
55314;SDS011;41619;42.816;23.226;2023-02-18T15:48:20;33.05;;;15.93;;
55314;SDS011;41619;42.816;23.226;2023-02-18T15:51:09;53.17;;;17.77;;
55314;SDS011;41619;42.816;23.226;2023-02-18T15:53:38;56.72;;;28.08;;
55314;SDS011;41619;42.816;23.226;2023-02-18T15:56:08;53.30;;;22.70;;
55314;SDS011;41619;42.816;23.226;2023-02-18T15:58:36;94.57;;;49.70;;
55314;SDS011;41619;42.816;23.226;2023-02-18T16:01:03;46.17;;;22.40;;
55314;SDS011;41619;42.816;23.226;2023-02-18T16:03:52;52.90;;;29.20;;
55314;SDS011;41619;42.816;23.226;2023-02-18T16:06:28;45.90;;;21.55;;
55314;SDS011;41619;42.816;23.226;2023-02-18T16:11:21;43.55;;;23.50;;
55314;SDS011;41619;42.816;23.226;2023-02-18T16:13:49;39.47;;;21.67;;
55314;SDS011;41619;42.816;23.226;2023-02-18T16:16:21;41.15;;;19.70;;
55314;SDS011;41619;42.816;23.226;2023-02-18T16:18:49;36.72;;;18.23;;
55314;SDS011;41619;42.816;23.226;2023-02-18T16:24:29;38.28;;;18.85;;
55314;SDS011;41619;42.816;23.226;2023-02-18T16:26:48;32.38;;;18.83;;
55314;SDS011;41619;42.816;23.226;2023-02-18T16:29:20;47.03;;;21.13;;
55314;SDS011;41619;42.816;23.226;2023-02-18T16:31:49;41.72;;;21.73;;
55314;SDS011;41619;42.816;23.226;2023-02-18T16:34:14;40.33;;;20.80;;
55314;SDS011;41619;42.816;23.226;2023-02-18T16:36:40;41.58;;;19.80;;
55314;SDS011;41619;42.816;23.226;2023-02-18T16:39:26;39.20;;;18.98;;
55314;SDS011;41619;42.816;23.226;2023-02-18T16:41:54;39.22;;;18.45;;
55314;SDS011;41619;42.816;23.226;2023-02-18T16:44:20;31.25;;;16.98;;
55314;SDS011;41619;42.816;23.226;2023-02-18T16:46:45;36.63;;;15.23;;
55314;SDS011;41619;42.816;23.226;2023-02-18T16:49:11;35.17;;;13.88;;
55314;SDS011;41619;42.816;23.226;2023-02-18T16:51:38;36.75;;;16.88;;
55314;SDS011;41619;42.816;23.226;2023-02-18T16:54:04;42.50;;;19.05;;
55314;SDS011;41619;42.816;23.226;2023-02-18T16:56:31;48.78;;;21.35;;
55314;SDS011;41619;42.816;23.226;2023-02-18T16:58:57;51.78;;;24.15;;
55314;SDS011;41619;42.816;23.226;2023-02-18T17:01:30;55.72;;;24.73;;
55314;SDS011;41619;42.816;23.226;2023-02-18T17:04:08;57.58;;;22.27;;
55314;SDS011;41619;42.816;23.226;2023-02-18T17:06:36;46.58;;;23.88;;
55314;SDS011;41619;42.816;23.226;2023-02-18T17:09:14;55.08;;;25.42;;
55314;SDS011;41619;42.816;23.226;2023-02-18T17:11:41;60.72;;;26.95;;
55314;SDS011;41619;42.816;23.226;2023-02-18T17:14:19;75.30;;;29.92;;
55314;SDS011;41619;42.816;23.226;2023-02-18T17:16:46;68.30;;;29.77;;
55314;SDS011;41619;42.816;23.226;2023-02-18T17:19:14;68.38;;;29.67;;
55314;SDS011;41619;42.816;23.226;2023-02-18T17:21:40;66.72;;;28.88;;